createdAt,value
2023-06-30T00:01:50.178Z,4.40
2023-06-30T00:04:19.257Z,4.60
2023-06-30T00:06:51.092Z,2.83
2023-06-30T00:09:20.348Z,3.20
2023-06-30T00:11:51.559Z,5.38
2023-06-30T00:14:19.735Z,3.88
2023-06-30T00:16:47.731Z,3.20
2023-06-30T00:19:15.593Z,3.65
2023-06-30T00:21:43.834Z,3.85
2023-06-30T00:24:12.119Z,3.90
2023-06-30T00:26:40.066Z,3.53
2023-06-30T00:29:09.711Z,4.63
2023-06-30T00:31:37.925Z,3.10
2023-06-30T00:34:05.963Z,4.97
2023-06-30T00:36:34.577Z,4.50
2023-06-30T00:39:02.633Z,7.00
2023-06-30T00:41:30.560Z,3.97
2023-06-30T00:43:59.435Z,6.32
2023-06-30T00:46:28.909Z,2.53
2023-06-30T00:48:56.976Z,3.25
2023-06-30T00:51:25.181Z,3.03
2023-06-30T00:53:53.506Z,4.97
2023-06-30T00:56:21.546Z,2.97
2023-06-30T00:58:49.673Z,4.22
2023-06-30T01:01:26.498Z,4.40
2023-06-30T01:04:01.349Z,3.45
2023-06-30T01:06:42.885Z,3.70
2023-06-30T01:09:16.170Z,3.47
2023-06-30T01:11:45.289Z,3.25
2023-06-30T01:14:15.285Z,3.05
2023-06-30T01:16:44.634Z,3.40
2023-06-30T01:19:21.505Z,4.68
2023-06-30T01:21:51.323Z,4.22
2023-06-30T01:24:22.358Z,5.72
2023-06-30T01:26:50.793Z,3.35
2023-06-30T01:29:19.644Z,3.17
2023-06-30T01:31:48.062Z,5.50
2023-06-30T01:34:17.386Z,3.60
2023-06-30T01:36:45.309Z,3.45
2023-06-30T01:39:13.328Z,4.72
2023-06-30T01:41:41.392Z,4.47
2023-06-30T01:44:09.566Z,3.33
2023-06-30T01:46:37.820Z,5.57
2023-06-30T01:49:06.146Z,5.53
2023-06-30T01:51:35.652Z,5.35
2023-06-30T01:54:03.567Z,8.73
2023-06-30T01:56:31.526Z,6.43
2023-06-30T01:58:59.409Z,5.20
2023-06-30T02:01:27.307Z,5.10
2023-06-30T02:03:55.479Z,8.25
2023-06-30T02:06:23.481Z,4.97
2023-06-30T02:08:52.832Z,4.22
2023-06-30T02:11:22.626Z,4.13
2023-06-30T02:13:50.654Z,4.43
2023-06-30T02:16:18.679Z,4.97
2023-06-30T02:18:46.768Z,5.38
2023-06-30T02:21:14.869Z,4.07
2023-06-30T02:23:42.942Z,3.65
2023-06-30T02:26:12.273Z,5.47
2023-06-30T02:28:40.377Z,4.22
2023-06-30T02:31:08.371Z,4.63
2023-06-30T02:33:36.575Z,3.58
2023-06-30T02:36:04.916Z,7.18
2023-06-30T02:38:33.517Z,5.30
2023-06-30T02:41:01.557Z,4.35
2023-06-30T02:43:30.944Z,4.43
2023-06-30T02:45:59.069Z,5.82
2023-06-30T02:48:27.302Z,6.20
2023-06-30T02:50:55.240Z,4.78
2023-06-30T02:53:23.194Z,4.18
2023-06-30T02:55:51.058Z,4.68
2023-06-30T02:58:19.004Z,4.10
2023-06-30T03:00:48.496Z,4.55
2023-06-30T03:03:16.452Z,5.53
2023-06-30T03:05:44.692Z,5.80
2023-06-30T03:08:13.017Z,4.65
2023-06-30T03:10:41.074Z,5.25
2023-06-30T03:13:09.100Z,6.50
2023-06-30T03:15:37.121Z,8.20
2023-06-30T03:18:06.605Z,5.75
2023-06-30T03:20:34.679Z,10.43
2023-06-30T03:23:02.691Z,8.40
2023-06-30T03:25:30.635Z,4.57
2023-06-30T03:27:58.673Z,5.97
2023-06-30T03:30:26.579Z,4.20
2023-06-30T03:32:54.576Z,4.80
2023-06-30T03:35:23.967Z,4.00
2023-06-30T03:37:51.812Z,4.90
2023-06-30T03:40:19.841Z,7.15
2023-06-30T03:42:48.005Z,6.95
2023-06-30T03:45:16.032Z,5.65
2023-06-30T03:47:44.091Z,7.97
2023-06-30T03:50:12.422Z,7.20
2023-06-30T03:52:41.835Z,5.95
2023-06-30T03:55:10.262Z,5.80
2023-06-30T03:57:38.221Z,6.45
2023-06-30T04:00:12.820Z,6.35
2023-06-30T04:02:41.017Z,6.45
2023-06-30T04:05:09.504Z,6.30
2023-06-30T04:07:38.757Z,7.47
2023-06-30T04:10:09.021Z,5.15
2023-06-30T04:12:36.936Z,5.97
2023-06-30T04:15:05.508Z,8.32
2023-06-30T04:17:33.469Z,7.13
2023-06-30T04:20:01.515Z,6.00
2023-06-30T04:22:29.447Z,5.78
2023-06-30T04:24:57.547Z,4.75
2023-06-30T04:27:26.936Z,5.82
2023-06-30T04:29:54.866Z,9.85
2023-06-30T04:32:25.913Z,6.90
2023-06-30T04:34:53.805Z,8.30
2023-06-30T04:37:21.851Z,6.25
2023-06-30T04:39:51.412Z,6.72
2023-06-30T04:42:19.346Z,8.40
2023-06-30T04:44:48.632Z,8.35
2023-06-30T04:47:17.696Z,6.47
2023-06-30T04:49:45.728Z,6.72
2023-06-30T04:52:14.620Z,8.40
2023-06-30T04:54:42.544Z,6.13
2023-06-30T04:57:11.130Z,8.10
2023-06-30T04:59:39.204Z,7.75
2023-06-30T05:02:08.666Z,6.38
2023-06-30T05:04:36.601Z,6.75
2023-06-30T05:07:04.996Z,6.75
2023-06-30T05:09:32.982Z,7.00
2023-06-30T05:12:00.993Z,8.73
2023-06-30T05:14:28.882Z,7.32
2023-06-30T05:16:56.926Z,6.43
2023-06-30T05:19:26.303Z,8.05
2023-06-30T05:21:54.237Z,8.40
2023-06-30T05:24:22.235Z,6.57
2023-06-30T05:26:50.851Z,6.60
2023-06-30T05:29:18.863Z,8.90
2023-06-30T05:31:46.769Z,6.50
2023-06-30T05:34:16.788Z,5.78
2023-06-30T05:36:46.745Z,6.80
2023-06-30T05:39:15.471Z,9.18
2023-06-30T05:41:43.755Z,7.30
2023-06-30T05:44:11.656Z,10.68
2023-06-30T05:46:39.972Z,5.75
2023-06-30T05:49:08.206Z,6.60
2023-06-30T05:51:36.787Z,8.10
2023-06-30T05:54:07.057Z,7.63
2023-06-30T05:56:34.996Z,8.88
2023-06-30T05:59:02.996Z,7.38
2023-06-30T06:01:31.048Z,5.90
2023-06-30T06:03:59.456Z,7.45
2023-06-30T06:06:27.573Z,9.15
2023-06-30T06:08:55.442Z,8.93
2023-06-30T06:11:24.760Z,7.35
2023-06-30T06:13:52.723Z,8.18
2023-06-30T06:16:20.952Z,5.63
2023-06-30T06:18:49.451Z,5.82
2023-06-30T06:21:19.050Z,6.45
2023-06-30T06:23:47.057Z,6.43
2023-06-30T06:26:15.087Z,7.47
2023-06-30T06:28:44.417Z,5.93
2023-06-30T06:31:15.178Z,7.45
2023-06-30T06:33:46.047Z,9.82
2023-06-30T06:36:14.007Z,6.65
2023-06-30T06:38:44.031Z,7.35
2023-06-30T06:41:11.997Z,5.68
2023-06-30T06:43:39.983Z,5.28
2023-06-30T06:46:09.570Z,7.00
2023-06-30T06:48:37.883Z,5.33
2023-06-30T06:51:05.972Z,6.70
2023-06-30T06:53:36.141Z,5.97
2023-06-30T06:56:05.056Z,5.30
2023-06-30T06:58:34.116Z,7.25
2023-06-30T07:01:02.060Z,5.88
2023-06-30T07:03:31.434Z,7.13
2023-06-30T07:05:59.899Z,5.35
2023-06-30T07:08:29.442Z,5.15
2023-06-30T07:10:57.689Z,6.07
2023-06-30T07:13:25.684Z,9.90
2023-06-30T07:15:54.203Z,5.57
2023-06-30T07:18:23.428Z,6.65
2023-06-30T07:20:55.094Z,6.15
2023-06-30T07:23:25.582Z,5.50
2023-06-30T07:25:55.146Z,5.75
2023-06-30T07:28:23.108Z,5.03
2023-06-30T07:30:51.066Z,6.40
2023-06-30T07:33:19.566Z,8.48
2023-06-30T07:35:47.795Z,7.05
2023-06-30T07:38:17.357Z,5.05
2023-06-30T07:40:55.696Z,5.30
2023-06-30T07:43:25.156Z,5.23
2023-06-30T07:45:53.511Z,7.55
2023-06-30T07:48:21.570Z,6.90
2023-06-30T07:51:03.336Z,5.53
2023-06-30T07:53:39.987Z,5.97
2023-06-30T07:56:07.930Z,4.88
2023-06-30T07:58:35.918Z,4.93
2023-06-30T08:01:04.333Z,5.50
2023-06-30T08:03:32.549Z,6.28
2023-06-30T08:06:01.473Z,6.30
2023-06-30T08:08:29.729Z,4.45
2023-06-30T08:10:59.522Z,5.93
2023-06-30T08:13:28.054Z,4.25
2023-06-30T08:15:58.156Z,5.20
2023-06-30T08:18:32.420Z,8.18
2023-06-30T08:23:15.581Z,5.82
2023-06-30T08:25:43.822Z,6.18
2023-06-30T08:28:12.154Z,6.32
2023-06-30T08:30:40.123Z,7.65
2023-06-30T08:33:08.223Z,4.60
2023-06-30T08:35:36.232Z,6.38
2023-06-30T08:38:04.153Z,6.20
2023-06-30T08:40:34.057Z,4.55
2023-06-30T08:43:06.713Z,5.63
2023-06-30T08:45:34.808Z,6.97
2023-06-30T08:48:06.501Z,4.32
2023-06-30T08:50:35.467Z,4.40
2023-06-30T08:53:04.341Z,4.28
2023-06-30T08:55:33.913Z,4.30
2023-06-30T08:58:07.046Z,4.93
2023-06-30T09:00:41.696Z,6.57
2023-06-30T09:03:10.199Z,4.90
2023-06-30T09:05:41.669Z,5.00
2023-06-30T09:08:16.836Z,4.75
2023-06-30T09:10:48.194Z,4.85
2023-06-30T09:13:19.290Z,4.15
2023-06-30T09:15:48.063Z,4.95
2023-06-30T09:18:16.534Z,4.13
2023-06-30T09:20:44.519Z,4.68
2023-06-30T09:23:14.251Z,3.15
2023-06-30T09:25:42.852Z,5.32
2023-06-30T09:28:15.000Z,6.38
2023-06-30T09:30:46.542Z,3.45
2023-06-30T09:33:18.318Z,3.60
2023-06-30T09:35:49.765Z,4.05
2023-06-30T09:38:19.085Z,3.47
2023-06-30T09:40:48.485Z,3.85
2023-06-30T09:43:22.762Z,5.10
2023-06-30T09:45:56.521Z,3.65
2023-06-30T09:48:37.340Z,5.43
2023-06-30T09:51:08.290Z,3.85
2023-06-30T09:53:38.144Z,2.92
2023-06-30T09:56:07.126Z,4.15
2023-06-30T09:58:40.429Z,3.45
2023-06-30T10:01:09.924Z,3.45
2023-06-30T10:03:48.893Z,3.00
2023-06-30T10:06:18.680Z,3.55
2023-06-30T10:08:48.136Z,3.55
2023-06-30T10:11:16.120Z,3.77
2023-06-30T10:13:48.351Z,3.78
2023-06-30T10:16:18.568Z,5.15
2023-06-30T10:18:49.092Z,3.70
2023-06-30T10:21:17.135Z,3.00
2023-06-30T10:23:47.990Z,3.50
2023-06-30T10:26:19.612Z,3.20
2023-06-30T10:28:49.994Z,3.50
2023-06-30T10:33:46.191Z,3.83
2023-06-30T10:36:15.519Z,3.38
2023-06-30T10:38:45.249Z,3.03
2023-06-30T10:41:14.912Z,3.20
2023-06-30T10:44:10.197Z,3.30
2023-06-30T10:46:52.811Z,2.92
2023-06-30T10:49:24.509Z,4.90
2023-06-30T10:51:53.994Z,3.10
2023-06-30T10:54:23.335Z,5.20
2023-06-30T10:56:52.312Z,3.80
2023-06-30T10:59:24.351Z,3.40
2023-06-30T11:02:11.593Z,4.68
2023-06-30T11:04:40.251Z,3.13
2023-06-30T11:07:08.738Z,2.30
2023-06-30T11:09:59.548Z,2.58
2023-06-30T11:12:28.811Z,2.17
2023-06-30T11:14:59.890Z,2.22
2023-06-30T11:17:29.287Z,2.95
2023-06-30T11:20:00.789Z,2.70
2023-06-30T11:22:32.362Z,2.63
2023-06-30T11:25:00.639Z,2.50
2023-06-30T11:27:31.375Z,2.63
2023-06-30T11:30:01.458Z,3.05
2023-06-30T11:32:31.247Z,3.75
2023-06-30T11:35:00.355Z,4.28
2023-06-30T11:37:31.010Z,3.10
2023-06-30T11:40:00.357Z,3.38
2023-06-30T11:42:28.544Z,3.20
2023-06-30T11:44:56.625Z,3.40
2023-06-30T11:47:26.730Z,4.88
2023-06-30T11:49:54.688Z,2.78
2023-06-30T11:52:22.600Z,3.85
2023-06-30T11:54:50.604Z,3.45
2023-06-30T11:57:18.669Z,4.07
2023-06-30T11:59:46.599Z,5.38
2023-06-30T12:02:14.956Z,4.60
2023-06-30T12:04:49.627Z,3.63
2023-06-30T12:07:17.903Z,4.13
2023-06-30T12:09:47.653Z,3.53
2023-06-30T12:12:28.502Z,4.00
2023-06-30T12:14:57.742Z,3.67
2023-06-30T12:17:28.318Z,3.45
2023-06-30T12:19:57.824Z,3.55
2023-06-30T12:22:29.282Z,3.27
2023-06-30T12:24:58.453Z,4.20
2023-06-30T12:27:28.460Z,4.32
2023-06-30T12:29:56.736Z,3.55
2023-06-30T12:32:29.175Z,3.40
2023-06-30T12:35:05.410Z,3.95
2023-06-30T12:37:35.026Z,6.35
2023-06-30T12:40:04.383Z,5.38
2023-06-30T12:42:32.568Z,3.60
2023-06-30T12:45:00.597Z,3.95
2023-06-30T12:47:28.658Z,4.22
2023-06-30T12:49:56.618Z,4.07
2023-06-30T12:52:26.033Z,3.58
2023-06-30T12:54:54.406Z,3.67
2023-06-30T12:57:22.513Z,4.10
2023-06-30T12:59:50.487Z,3.42
2023-06-30T13:02:18.544Z,4.25
2023-06-30T13:04:46.588Z,3.88
2023-06-30T13:07:14.568Z,5.53
2023-06-30T13:09:49.161Z,4.68
2023-06-30T13:12:18.421Z,5.07
2023-06-30T13:14:46.365Z,3.45
2023-06-30T13:17:16.262Z,3.08
2023-06-30T13:19:44.159Z,4.03
2023-06-30T13:22:13.256Z,5.50
2023-06-30T13:24:41.381Z,2.85
2023-06-30T13:27:10.666Z,3.58
2023-06-30T13:29:44.922Z,3.03
2023-06-30T13:32:13.083Z,2.42
2023-06-30T13:34:41.421Z,3.60
2023-06-30T13:37:09.556Z,3.28
2023-06-30T13:39:38.255Z,5.47
2023-06-30T13:42:06.798Z,3.22
2023-06-30T13:44:36.610Z,4.80
2023-06-30T13:47:05.000Z,2.85
2023-06-30T13:49:32.994Z,3.05
2023-06-30T13:52:00.941Z,5.45
2023-06-30T13:54:30.479Z,2.50
2023-06-30T13:56:58.493Z,2.27
2023-06-30T13:59:26.451Z,4.40
2023-06-30T14:01:55.787Z,4.07
2023-06-30T14:04:23.725Z,5.32
2023-06-30T14:06:51.781Z,4.07
2023-06-30T14:09:19.747Z,4.82
2023-06-30T14:11:47.761Z,5.57
2023-06-30T14:14:15.822Z,6.30
2023-06-30T14:16:44.224Z,7.53
2023-06-30T14:19:13.701Z,4.07
2023-06-30T14:21:41.741Z,4.40
2023-06-30T14:24:09.765Z,5.32
2023-06-30T14:26:38.095Z,4.10
2023-06-30T14:29:06.092Z,5.30
2023-06-30T14:31:34.156Z,4.72
2023-06-30T14:34:02.075Z,8.48
2023-06-30T14:36:31.394Z,10.60
2023-06-30T14:38:59.380Z,5.78
2023-06-30T14:41:27.290Z,6.25
2023-06-30T14:43:55.246Z,5.30
2023-06-30T14:46:23.184Z,5.97
2023-06-30T14:48:51.253Z,4.90
2023-06-30T14:51:19.138Z,4.45
2023-06-30T14:53:48.530Z,8.07
2023-06-30T14:56:16.446Z,5.13
2023-06-30T14:58:44.882Z,5.10
2023-06-30T15:01:12.843Z,4.95
2023-06-30T15:03:40.925Z,4.80
2023-06-30T15:06:08.927Z,5.85
2023-06-30T15:08:36.947Z,5.57
2023-06-30T15:11:06.245Z,4.90
2023-06-30T15:13:34.987Z,10.27
2023-06-30T15:16:03.992Z,5.47
2023-06-30T15:18:32.025Z,5.45
2023-06-30T15:21:00.068Z,5.13
2023-06-30T15:23:28.038Z,6.30
2023-06-30T15:25:55.956Z,7.13
2023-06-30T15:28:25.236Z,9.73
2023-06-30T15:30:53.240Z,5.57
2023-06-30T15:33:21.307Z,5.18
2023-06-30T15:35:49.364Z,6.65
2023-06-30T15:38:17.361Z,7.05
2023-06-30T15:40:45.997Z,4.70
2023-06-30T15:43:13.973Z,5.20
2023-06-30T15:45:43.325Z,8.80
2023-06-30T15:48:15.749Z,5.78
2023-06-30T15:50:44.499Z,4.40
2023-06-30T15:53:12.749Z,4.97
2023-06-30T15:55:40.798Z,5.10
2023-06-30T15:58:08.909Z,5.40
2023-06-30T16:00:36.818Z,6.07
2023-06-30T16:03:06.359Z,7.05
2023-06-30T16:05:34.580Z,4.20
2023-06-30T16:08:05.687Z,5.82
2023-06-30T16:10:33.666Z,6.28
2023-06-30T16:13:01.647Z,5.53
2023-06-30T16:15:29.673Z,8.35
2023-06-30T16:17:57.725Z,5.75
2023-06-30T16:20:27.396Z,7.03
2023-06-30T16:22:55.390Z,10.47
2023-06-30T16:25:23.310Z,8.52
2023-06-30T16:27:51.213Z,7.85
2023-06-30T16:30:26.693Z,5.90
2023-06-30T16:32:58.594Z,8.50
2023-06-30T16:35:28.492Z,8.77
2023-06-30T16:37:57.658Z,11.38
2023-06-30T16:40:26.156Z,12.70
2023-06-30T16:42:54.300Z,12.43
2023-06-30T16:45:22.643Z,11.90
2023-06-30T16:47:50.531Z,7.03
2023-06-30T16:50:19.092Z,8.80
2023-06-30T16:52:48.505Z,8.43
2023-06-30T16:55:16.377Z,8.80
2023-06-30T16:57:45.170Z,9.00
2023-06-30T17:00:14.192Z,8.57
2023-06-30T17:02:42.426Z,9.32
2023-06-30T17:05:11.260Z,9.32
2023-06-30T17:07:39.305Z,10.90
2023-06-30T17:10:12.049Z,11.77
2023-06-30T17:12:40.527Z,7.47
2023-06-30T17:15:10.698Z,9.05
2023-06-30T17:17:38.860Z,9.00
2023-06-30T17:20:08.447Z,12.88
2023-06-30T17:22:36.460Z,9.80
2023-06-30T17:25:05.868Z,10.35
2023-06-30T17:27:35.639Z,16.83
2023-06-30T17:30:04.137Z,7.95
2023-06-30T17:32:32.180Z,14.05
2023-06-30T17:35:00.213Z,11.45
2023-06-30T17:37:28.270Z,11.45
2023-06-30T17:39:56.205Z,13.07
2023-06-30T17:42:24.303Z,8.45
2023-06-30T17:44:53.651Z,14.65
2023-06-30T17:47:21.627Z,9.32
2023-06-30T17:49:49.740Z,10.63
2023-06-30T17:52:17.868Z,9.52
2023-06-30T17:54:47.431Z,9.27
2023-06-30T17:57:15.625Z,11.00
2023-06-30T17:59:43.726Z,14.05
2023-06-30T18:02:13.271Z,8.82
2023-06-30T18:04:42.002Z,12.57
2023-06-30T18:07:11.777Z,8.90
2023-06-30T18:09:41.580Z,9.60
2023-06-30T18:12:10.982Z,11.48
2023-06-30T18:14:40.464Z,8.70
2023-06-30T18:17:08.455Z,12.35
2023-06-30T18:19:37.827Z,11.57
2023-06-30T18:22:06.311Z,12.05
2023-06-30T18:24:34.395Z,11.25
2023-06-30T18:27:02.350Z,10.90
2023-06-30T18:29:30.400Z,15.45
2023-06-30T18:32:00.789Z,13.75
2023-06-30T18:34:29.210Z,12.57
2023-06-30T18:36:58.612Z,10.70
2023-06-30T18:39:26.639Z,8.93
2023-06-30T18:41:55.928Z,8.32
2023-06-30T18:44:26.027Z,10.33
2023-06-30T18:46:54.172Z,10.40
2023-06-30T18:49:24.738Z,9.35
2023-06-30T18:51:55.369Z,10.30
2023-06-30T18:54:24.988Z,11.23
2023-06-30T18:56:53.614Z,8.48
2023-06-30T18:59:21.615Z,13.40
2023-06-30T19:01:49.941Z,12.50
2023-06-30T19:04:18.433Z,14.88
2023-06-30T19:06:48.575Z,9.00
2023-06-30T19:09:16.775Z,14.45
2023-06-30T19:11:46.123Z,10.40
2023-06-30T19:14:14.030Z,13.23
2023-06-30T19:16:41.953Z,11.13
2023-06-30T19:19:09.815Z,14.05
2023-06-30T19:21:37.992Z,17.40
2023-06-30T19:24:06.267Z,12.70
2023-06-30T19:26:36.951Z,12.77
2023-06-30T19:29:06.332Z,15.55
2023-06-30T19:31:34.377Z,12.27
2023-06-30T19:34:02.321Z,13.57
2023-06-30T19:36:32.823Z,10.82
2023-06-30T19:41:28.832Z,11.15
2023-06-30T19:43:56.867Z,13.55
2023-06-30T19:46:27.711Z,12.23
2023-06-30T19:48:55.807Z,9.15
2023-06-30T19:51:23.773Z,10.40
2023-06-30T19:53:51.726Z,10.63
2023-06-30T19:56:19.735Z,15.35
2023-06-30T19:58:47.656Z,12.23
2023-06-30T20:01:18.181Z,12.70
2023-06-30T20:03:47.848Z,14.20
2023-06-30T20:06:15.951Z,12.30
2023-06-30T20:08:43.861Z,10.57
2023-06-30T20:11:13.188Z,11.40
2023-06-30T20:13:41.768Z,15.98
2023-06-30T20:16:10.511Z,14.93
2023-06-30T20:18:38.521Z,11.32
2023-06-30T20:21:07.946Z,14.50
2023-06-30T20:23:35.896Z,14.18
2023-06-30T20:26:03.834Z,11.93
2023-06-30T20:28:31.770Z,9.93
2023-06-30T20:30:59.910Z,11.52
2023-06-30T20:33:28.079Z,16.15
2023-06-30T20:35:56.192Z,13.27
2023-06-30T20:38:25.678Z,11.95
2023-06-30T20:40:53.693Z,12.70
2023-06-30T20:43:21.614Z,10.52
2023-06-30T20:45:49.538Z,9.57
2023-06-30T20:48:20.494Z,13.40
2023-06-30T20:50:48.631Z,16.13
2023-06-30T20:53:17.199Z,11.30
2023-06-30T20:55:46.438Z,11.43
2023-06-30T20:58:14.439Z,11.68
2023-06-30T21:00:42.423Z,5.95
2023-06-30T21:03:11.243Z,15.13
2023-06-30T21:05:39.266Z,7.93
2023-06-30T21:08:07.238Z,8.50
2023-06-30T21:10:35.285Z,11.65
2023-06-30T21:13:04.609Z,8.27
2023-06-30T21:15:32.555Z,10.45
2023-06-30T21:18:00.637Z,7.72
2023-06-30T21:20:28.554Z,11.68
2023-06-30T21:22:56.485Z,9.18
2023-06-30T21:25:24.420Z,8.15
2023-06-30T21:27:52.320Z,6.82
2023-06-30T21:30:21.830Z,7.22
2023-06-30T21:32:49.921Z,5.97
2023-06-30T21:35:18.097Z,13.10
2023-06-30T21:37:46.160Z,10.10
2023-06-30T21:40:15.577Z,11.70
2023-06-30T21:42:44.613Z,9.73
2023-06-30T21:45:12.812Z,7.97
2023-06-30T21:47:42.117Z,8.68
2023-06-30T21:50:10.731Z,6.57
2023-06-30T21:52:38.670Z,8.98
2023-06-30T21:55:07.452Z,7.30
2023-06-30T21:57:35.448Z,8.18
2023-06-30T22:00:04.600Z,12.73
2023-06-30T22:02:32.771Z,6.78
2023-06-30T22:05:02.148Z,7.53
2023-06-30T22:07:31.185Z,5.68
2023-06-30T22:09:59.816Z,11.90
2023-06-30T22:12:27.849Z,7.57
2023-06-30T22:14:55.781Z,7.95
2023-06-30T22:17:23.813Z,6.00
2023-06-30T22:19:51.823Z,6.97
2023-06-30T22:22:21.184Z,6.55
2023-06-30T22:24:49.134Z,10.60
2023-06-30T22:27:17.104Z,11.18
2023-06-30T22:29:45.131Z,8.68
2023-06-30T22:32:14.626Z,6.38
2023-06-30T22:34:42.679Z,7.28
2023-06-30T22:37:10.771Z,7.38
2023-06-30T22:39:40.125Z,9.63
2023-06-30T22:42:08.608Z,7.35
2023-06-30T22:44:36.664Z,6.47
2023-06-30T22:47:04.887Z,6.47
2023-06-30T22:49:32.999Z,7.47
2023-06-30T22:52:00.902Z,9.18
2023-06-30T22:54:28.918Z,4.07
2023-06-30T22:56:59.208Z,13.43
2023-06-30T22:59:27.687Z,11.20
2023-06-30T23:01:55.635Z,7.78
2023-06-30T23:04:23.994Z,11.30
2023-06-30T23:06:51.983Z,14.63
2023-06-30T23:09:20.004Z,10.40
2023-06-30T23:11:47.877Z,9.43
2023-06-30T23:14:19.900Z,7.03
2023-06-30T23:16:48.791Z,6.00
2023-06-30T23:19:16.989Z,6.00
2023-06-30T23:21:45.716Z,9.73
2023-06-30T23:24:13.812Z,10.98
2023-06-30T23:26:42.483Z,6.30
2023-06-30T23:29:10.626Z,14.02
2023-06-30T23:31:40.349Z,13.95
2023-06-30T23:34:08.472Z,9.65
2023-06-30T23:36:37.307Z,11.07
2023-06-30T23:39:05.797Z,11.07
2023-06-30T23:41:33.904Z,10.32
2023-06-30T23:44:02.410Z,13.38
2023-06-30T23:46:31.661Z,9.88
2023-06-30T23:49:01.146Z,9.27
2023-06-30T23:51:29.093Z,10.43
2023-06-30T23:53:57.015Z,11.07
2023-06-30T23:56:25.009Z,11.80
2023-06-30T23:58:52.955Z,6.03
